Potter, Nebraska
Current Conditions -  °F | °C
As of 3:15 AM on Tuesday 27 Jan 2015 (Local Time) from KIBM Reporting Station
Clear Clear  
Wind Chill:   Ceiling: Unl
Heat Index:   Visibility: 10mi
Dew Point: -4°   Wind: 8mph
Humidity: 59%   Direction: 260°W
Pressure: 30.1"   Gusts: NA
Location:  41.22°N, 103.32°W
Report Text: KIBM 271015Z AUTO 26007KT 10SM CLR 04/M04 A3010 RMK AO2 T00351038
Loading
Personal Weather Stations






























Interactive Weather Map New forecast layout! Learn more

10-Day Weather Forecast

Advertisements
Track Severe Weather on mobile